Time;durP1;ratioP1;P1;durP2;ratioP2;P2;SDS_P1;SDS_P2;PMS_P1;PMS_P2;Temp;Humidity;BMP_temperature;BMP_pressure;BME280_temperature;BME280_humidity;BME280_pressure;Samples;Min_cycle;Max_cycle;Signal;HPM_P1;HPM_P2
2020/12/10 00:00:16;;;;;;;57.40;22.10;;;;;;;-0.73;100.00;100399.09;4981543;28;20041;-68
2020/12/10 00:02:43;;;;;;;59.70;23.70;;;;;;;-0.78;100.00;100402.72;4979820;28;20289;-68
2020/12/10 00:05:11;;;;;;;63.13;23.85;;;;;;;-0.65;100.00;100402.41;4979942;28;20038;-68
2020/12/10 00:07:37;;;;;;;58.45;23.08;;;;;;;-0.74;100.00;100404.41;4979816;28;20301;-68
2020/12/10 00:10:08;;;;;;;63.67;24.42;;;;;;;-0.72;100.00;100405.22;4979580;28;20064;-68
2020/12/10 00:12:37;;;;;;;65.32;23.45;;;;;;;-0.82;100.00;100400.19;4981483;28;20583;-69
2020/12/10 00:15:03;;;;;;;58.60;22.52;;;;;;;-0.88;100.00;100404.72;4974952;28;20053;-68
2020/12/10 00:17:29;;;;;;;60.83;23.30;;;;;;;-0.80;100.00;100394.03;4982499;28;20034;-68
2020/12/10 00:19:55;;;;;;;63.50;24.98;;;;;;;-0.72;100.00;100395.56;4980771;28;20066;-68
2020/12/10 00:22:24;;;;;;;64.63;23.83;;;;;;;-0.79;100.00;100393.97;4987165;28;20104;-68
2020/12/10 00:24:50;;;;;;;57.03;21.90;;;;;;;-0.72;100.00;100384.13;4977437;28;20035;-68
2020/12/10 00:27:24;;;;;;;55.08;22.05;;;;;;;-0.84;100.00;100378.25;4983609;28;20042;-68
2020/12/10 00:29:49;;;;;;;62.47;23.90;;;;;;;-0.78;100.00;100379.03;4982553;28;20035;-68
2020/12/10 00:32:15;;;;;;;63.10;23.60;;;;;;;-0.88;100.00;100373.97;4987650;28;20512;-68
2020/12/10 00:34:41;;;;;;;60.47;22.95;;;;;;;-0.83;100.00;100372.09;4983252;28;20089;-69
2020/12/10 00:37:10;;;;;;;62.58;23.92;;;;;;;-0.76;100.00;100374.59;4988335;28;20045;-68
2020/12/10 00:39:36;;;;;;;58.42;22.92;;;;;;;-0.82;100.00;100379.09;4980671;28;20129;-68
2020/12/10 00:42:05;;;;;;;59.95;22.40;;;;;;;-0.87;100.00;100375.72;4982767;28;20511;-68
2020/12/10 00:44:32;;;;;;;56.38;21.52;;;;;;;-0.79;100.00;100366.75;4987424;28;20057;-68
2020/12/10 00:46:57;;;;;;;56.05;20.35;;;;;;;-0.59;100.00;100375.03;4980439;28;20042;-68
2020/12/10 00:49:24;;;;;;;48.58;19.98;;;;;;;-0.68;100.00;100364.75;4986021;28;20062;-68
2020/12/10 00:51:50;;;;;;;53.80;20.98;;;;;;;-0.56;100.00;100364.44;4984394;28;20030;-68
2020/12/10 00:54:18;;;;;;;58.90;21.58;;;;;;;-0.66;100.00;100362.91;4981049;28;20038;-68
2020/12/10 00:56:44;;;;;;;59.85;20.90;;;;;;;-0.75;100.00;100355.25;4982380;28;20042;-68
2020/12/10 00:59:10;;;;;;;59.28;22.42;;;;;;;-0.61;100.00;100361.03;4987539;28;20373;-68
2020/12/10 01:01:39;;;;;;;58.10;21.77;;;;;;;-0.60;100.00;100362.75;4985626;28;20033;-68
2020/12/10 01:04:04;;;;;;;53.45;20.77;;;;;;;-0.60;100.00;100357.50;4982144;28;20027;-68
2020/12/10 01:06:30;;;;;;;57.90;21.48;;;;;;;-0.56;100.00;100352.13;4990406;28;20045;-68
2020/12/10 01:08:55;;;;;;;51.00;21.55;;;;;;;-0.55;100.00;100352.97;4987458;28;20042;-68
2020/12/10 01:11:26;;;;;;;61.67;22.65;;;;;;;-0.66;100.00;100341.81;4986388;28;20117;-68
2020/12/10 01:13:52;;;;;;;55.60;22.05;;;;;;;-0.65;100.00;100354.97;4978959;28;20149;-68
2020/12/10 01:16:17;;;;;;;60.85;23.73;;;;;;;-0.60;100.00;100347.81;4985517;28;20462;-68
2020/12/10 01:18:43;;;;;;;56.88;23.42;;;;;;;-0.59;100.00;100348.69;4986678;28;20076;-69
2020/12/10 01:21:08;;;;;;;55.78;22.00;;;;;;;-0.52;100.00;100339.72;4983873;28;20073;-68
2020/12/10 01:23:34;;;;;;;58.60;23.20;;;;;;;-0.57;100.00;100341.63;4987282;28;20038;-68
2020/12/10 01:25:59;;;;;;;58.42;23.00;;;;;;;-0.58;100.00;100339.88;4981289;28;20504;-68
2020/12/10 01:28:25;;;;;;;50.58;22.00;;;;;;;-0.58;100.00;100332.84;4988553;28;20042;-69
2020/12/10 01:30:50;;;;;;;56.40;21.42;;;;;;;-0.44;100.00;100335.13;4975049;28;20185;-68
2020/12/10 01:33:16;;;;;;;59.63;23.02;;;;;;;-0.56;100.00;100336.31;4980822;28;20038;-68
2020/12/10 01:35:43;;;;;;;64.00;23.73;;;;;;;-0.49;100.00;100334.34;4983609;28;20047;-68
2020/12/10 01:38:08;;;;;;;55.85;22.35;;;;;;;-0.59;100.00;100333.75;4983367;28;20039;-68
2020/12/10 01:40:33;;;;;;;56.28;22.27;;;;;;;-0.55;100.00;100329.25;4985795;28;20038;-69
2020/12/10 01:42:59;;;;;;;59.20;23.75;;;;;;;-0.51;100.00;100334.41;4988023;28;20042;-68
2020/12/10 01:45:24;;;;;;;60.90;23.55;;;;;;;-0.47;100.00;100324.66;4978764;28;20038;-68
2020/12/10 01:47:50;;;;;;;56.38;22.92;;;;;;;-0.48;100.00;100323.78;4978961;28;20034;-69
2020/12/10 01:50:15;;;;;;;58.55;23.85;;;;;;;-0.45;100.00;100325.50;4980056;28;21594;-68
2020/12/10 01:52:41;;;;;;;54.00;23.02;;;;;;;-0.46;100.00;100329.88;4978656;28;20035;-68
2020/12/10 01:55:06;;;;;;;58.25;24.67;;;;;;;-0.53;100.00;100328.31;4986484;28;20061;-68
2020/12/10 01:57:32;;;;;;;62.08;24.30;;;;;;;-0.54;100.00;100325.72;4988064;28;21539;-68
2020/12/10 01:59:57;;;;;;;57.65;23.15;;;;;;;-0.56;100.00;100324.91;4977668;28;20037;-69
2020/12/10 02:02:23;;;;;;;56.10;24.10;;;;;;;-0.43;100.00;100334.19;4987300;28;20084;-68
2020/12/10 02:04:48;;;;;;;63.28;23.52;;;;;;;-0.50;100.00;100327.38;4979064;28;20035;-68
2020/12/10 02:07:14;;;;;;;66.63;24.35;;;;;;;-0.57;100.00;100324.03;4981256;28;20111;-69
2020/12/10 02:09:39;;;;;;;61.90;23.25;;;;;;;-0.46;100.00;100323.75;4983802;28;20030;-69
2020/12/10 02:12:05;;;;;;;65.43;24.90;;;;;;;-0.44;100.00;100321.94;4975602;28;20589;-68
2020/12/10 02:14:35;;;;;;;58.22;23.77;;;;;;;-0.58;100.00;100321.44;4978550;28;20035;-68
2020/12/10 02:17:04;;;;;;;64.20;25.55;;;;;;;-0.57;100.00;100315.25;4985431;28;20034;-69
2020/12/10 02:19:29;;;;;;;62.38;25.33;;;;;;;-0.43;100.00;100321.03;4977112;28;20176;-68
2020/12/10 02:21:55;;;;;;;66.38;24.95;;;;;;;-0.42;100.00;100312.22;4988042;28;20533;-69
2020/12/10 02:24:21;;;;;;;64.47;24.30;;;;;;;-0.45;100.00;100310.53;4985085;28;20073;-68
2020/12/10 02:26:46;;;;;;;57.15;24.25;;;;;;;-0.43;100.00;100298.16;4978636;28;20049;-68
2020/12/10 02:29:12;;;;;;;67.90;25.30;;;;;;;-0.49;100.00;100293.03;4985803;28;20036;-69
2020/12/10 02:31:38;;;;;;;61.92;24.50;;;;;;;-0.50;100.00;100286.06;4986425;28;20468;-69
2020/12/10 02:34:06;;;;;;;56.10;23.50;;;;;;;-0.52;100.00;100292.28;4980975;28;20125;-68
2020/12/10 02:36:32;;;;;;;63.20;25.02;;;;;;;-0.55;100.00;100281.78;4980990;28;20100;-68
2020/12/10 02:38:58;;;;;;;67.82;26.45;;;;;;;-0.48;100.00;100286.00;4976182;28;20042;-69
2020/12/10 02:41:23;;;;;;;68.95;24.85;;;;;;;-0.52;100.00;100287.88;4983059;28;20040;-68
2020/12/10 02:43:49;;;;;;;66.35;24.95;;;;;;;-0.50;100.00;100279.94;4984851;28;20114;-68
2020/12/10 02:46:15;;;;;;;68.93;25.88;;;;;;;-0.55;100.00;100276.53;4981812;28;20061;-68
2020/12/10 02:48:40;;;;;;;62.67;24.65;;;;;;;-0.55;100.00;100273.88;4977537;28;20386;-69
2020/12/10 02:51:06;;;;;;;61.28;23.55;;;;;;;-0.58;100.00;100276.63;4982016;28;20037;-68
2020/12/10 02:53:33;;;;;;;66.10;25.33;;;;;;;-0.66;100.00;100278.56;4984863;28;20045;-68
2020/12/10 02:55:59;;;;;;;60.40;24.20;;;;;;;-0.62;100.00;100272.34;4984358;28;20499;-69
2020/12/10 02:58:24;;;;;;;57.35;23.30;;;;;;;-0.64;100.00;100266.25;4975673;28;20046;-68
2020/12/10 03:00:50;;;;;;;67.70;25.85;;;;;;;-0.64;100.00;100266.25;4982147;28;20073;-69
2020/12/10 03:03:17;;;;;;;63.88;25.48;;;;;;;-0.64;100.00;100266.25;4976036;28;20068;-68
2020/12/10 03:05:43;;;;;;;65.28;24.40;;;;;;;-0.67;100.00;100267.16;4977053;28;20451;-69
2020/12/10 03:08:09;;;;;;;65.65;24.30;;;;;;;-0.69;100.00;100263.72;4978040;28;20058;-68
2020/12/10 03:10:35;;;;;;;65.72;24.65;;;;;;;-0.78;100.00;100273.63;4975367;28;20034;-68
2020/12/10 03:13:00;;;;;;;68.20;25.30;;;;;;;-0.76;100.00;100263.91;4982862;28;20141;-69
2020/12/10 03:15:26;;;;;;;72.18;26.80;;;;;;;-0.64;100.00;100261.84;4980694;28;20049;-69
2020/12/10 03:17:52;;;;;;;67.90;27.33;;;;;;;-0.60;100.00;100262.59;4976205;28;20047;-69
2020/12/10 03:20:17;;;;;;;79.10;29.08;;;;;;;-0.69;100.00;100254.97;4979050;28;20150;-68
2020/12/10 03:22:43;;;;;;;72.80;27.90;;;;;;;-0.67;100.00;100258.41;4982973;28;20034;-68
2020/12/10 03:25:08;;;;;;;75.65;27.40;;;;;;;-0.55;100.00;100255.44;4982298;28;20029;-68
2020/12/10 03:27:34;;;;;;;76.72;27.27;;;;;;;-0.64;100.00;100251.28;4983716;28;20034;-68
2020/12/10 03:30:00;;;;;;;71.90;26.30;;;;;;;-0.55;100.00;100239.63;4983083;28;20039;-68
2020/12/10 03:32:26;;;;;;;65.68;25.02;;;;;;;-0.64;100.00;100239.88;4982528;28;20038;-69
2020/12/10 03:34:52;;;;;;;67.80;26.05;;;;;;;-0.68;100.00;100238.25;4983045;28;20349;-69
2020/12/10 03:37:17;;;;;;;65.22;24.88;;;;;;;-0.63;100.00;100242.47;4979025;28;20041;-68
2020/12/10 03:39:42;;;;;;;66.53;26.20;;;;;;;-0.62;100.00;100251.25;4976904;28;20062;-68
2020/12/10 03:42:08;;;;;;;71.07;26.15;;;;;;;-0.68;100.00;100259.31;4985963;28;20058;-68
2020/12/10 03:44:33;;;;;;;69.43;25.70;;;;;;;-0.70;100.00;100240.91;4987973;28;20531;-68
2020/12/10 03:46:59;;;;;;;65.47;25.83;;;;;;;-0.66;100.00;100236.41;4983296;28;20034;-68
2020/12/10 03:49:24;;;;;;;66.43;25.80;;;;;;;-0.72;100.00;100234.81;4984094;28;20038;-68
2020/12/10 03:51:50;;;;;;;72.07;26.70;;;;;;;-0.74;100.00;100233.97;4982179;28;20397;-68
2020/12/10 03:54:15;;;;;;;70.78;28.45;;;;;;;-0.73;100.00;100234.84;4980641;28;20101;-68
2020/12/10 03:56:41;;;;;;;79.45;28.10;;;;;;;-0.68;100.00;100235.63;4979795;28;20453;-69
2020/12/10 03:59:06;;;;;;;67.95;25.90;;;;;;;-0.59;100.00;100227.44;4983806;28;20072;-68
2020/12/10 04:01:33;;;;;;;75.05;26.45;;;;;;;-0.79;100.00;100229.72;4983732;28;20101;-68
2020/12/10 04:03:58;;;;;;;73.15;27.95;;;;;;;-0.67;100.00;100226.78;4977751;28;20486;-68
2020/12/10 04:06:24;;;;;;;67.15;24.75;;;;;;;-0.62;100.00;100217.00;4979587;28;20045;-69
2020/12/10 04:08:49;;;;;;;65.95;24.70;;;;;;;-0.68;100.00;100211.91;4981740;28;20573;-69
2020/12/10 04:11:16;;;;;;;76.78;25.38;;;;;;;-0.66;100.00;100208.28;4978371;28;20077;-68
2020/12/10 04:13:41;;;;;;;64.53;25.38;;;;;;;-0.66;100.00;100207.41;4985303;28;20035;-69
2020/12/10 04:16:06;;;;;;;72.13;25.90;;;;;;;-0.69;100.00;100204.88;4985051;28;20045;-69
2020/12/10 04:18:37;;;;;;;69.47;26.38;;;;;;;-0.66;100.00;100200.38;4979942;28;20038;-68
2020/12/10 04:21:03;;;;;;;75.57;25.80;;;;;;;-0.70;100.00;100204.03;4984352;28;20264;-68
2020/12/10 04:23:28;;;;;;;67.22;25.98;;;;;;;-0.72;100.00;100200.56;4979189;28;20490;-68
2020/12/10 04:25:54;;;;;;;63.83;25.85;;;;;;;-0.67;100.00;100213.59;4973852;28;20101;-68
2020/12/10 04:28:20;;;;;;;67.75;26.25;;;;;;;-0.75;100.00;100220.84;4980256;28;20113;-68
2020/12/10 04:30:46;;;;;;;78.38;27.77;;;;;;;-0.58;100.00;100213.38;4975166;28;20154;-68
2020/12/10 04:33:12;;;;;;;69.63;26.38;;;;;;;-0.56;100.00;100214.19;4978876;28;20080;-69
2020/12/10 04:35:37;;;;;;;70.45;27.45;;;;;;;-0.59;100.00;100216.91;4977858;28;20465;-68
2020/12/10 04:38:04;;;;;;;74.47;28.38;;;;;;;-0.70;100.00;100221.59;4985128;28;20041;-68
2020/12/10 04:40:30;;;;;;;80.68;27.55;;;;;;;-0.83;100.00;100214.00;4983579;28;20382;-68
2020/12/10 04:42:56;;;;;;;68.82;27.23;;;;;;;-0.75;100.00;100205.06;4983195;28;20049;-68
2020/12/10 04:45:22;;;;;;;74.63;27.70;;;;;;;-0.81;100.00;100216.63;4969528;28;20031;-68
2020/12/10 04:47:51;;;;;;;85.07;29.58;;;;;;;-0.68;100.00;100211.91;4979931;28;20037;-68
2020/12/10 04:50:20;;;;;;;73.03;27.33;;;;;;;-0.66;100.00;100212.69;4978461;28;20138;-68
2020/12/10 04:52:46;;;;;;;77.55;28.40;;;;;;;-0.79;100.00;100209.50;4981610;28;20549;-68
2020/12/10 04:55:11;;;;;;;77.82;27.98;;;;;;;-0.86;100.00;100211.44;4980929;28;20038;-68
2020/12/10 04:57:40;;;;;;;70.90;26.75;;;;;;;-0.75;100.00;100218.22;4986025;28;20048;-68
2020/12/10 05:00:06;;;;;;;86.68;29.92;;;;;;;-0.76;100.00;100224.41;4976383;28;20030;-69
2020/12/10 05:02:32;;;;;;;78.07;29.25;;;;;;;-0.82;100.00;100226.28;4983082;28;20108;-68
2020/12/10 05:04:57;;;;;;;78.18;28.63;;;;;;;-0.70;100.00;100218.97;4979406;28;20039;-69
2020/12/10 05:07:38;;;;;;;71.22;27.00;;;;;;;-0.85;100.00;100223.72;4986845;28;20034;-69
2020/12/10 05:10:04;;;;;;;74.20;27.58;;;;;;;-0.79;100.00;100208.66;4982596;28;20448;-68
2020/12/10 05:12:29;;;;;;;83.80;28.80;;;;;;;-0.76;100.00;100203.31;4985890;28;20253;-68
2020/12/10 05:14:55;;;;;;;77.78;27.77;;;;;;;-0.83;100.00;100207.88;4983917;28;20034;-68
2020/12/10 05:17:20;;;;;;;82.18;28.65;;;;;;;-0.95;100.00;100216.97;4984630;28;20034;-69
2020/12/10 05:19:55;;;;;;;85.55;31.02;;;;;;;-0.83;100.00;100228.97;4977851;28;20488;-68
2020/12/10 05:22:21;;;;;;;71.47;28.48;;;;;;;-0.87;100.00;100217.66;4986648;28;20093;-69
2020/12/10 05:24:47;;;;;;;80.05;27.40;;;;;;;-0.79;100.00;100219.19;4985491;28;20472;-68
2020/12/10 05:27:15;;;;;;;76.28;28.13;;;;;;;-0.93;100.00;100209.91;4981870;28;20113;-68
2020/12/10 05:29:40;;;;;;;73.72;29.45;;;;;;;-0.88;100.00;100218.53;4987530;28;20034;-68
2020/12/10 05:32:06;;;;;;;87.28;29.63;;;;;;;-0.85;100.00;100218.44;4986321;28;20050;-69
2020/12/10 05:34:31;;;;;;;86.20;30.13;;;;;;;-0.83;100.00;100208.75;4984997;28;20038;-69
2020/12/10 05:36:56;;;;;;;75.47;26.83;;;;;;;-0.78;100.00;100223.56;4984653;28;20045;-69
2020/12/10 05:39:22;;;;;;;70.80;26.02;;;;;;;-0.74;100.00;100217.31;4984888;28;20788;-69
2020/12/10 05:41:52;;;;;;;82.60;29.75;;;;;;;-0.78;100.00;100215.66;4985954;28;20038;-69
2020/12/10 05:44:20;;;;;;;72.80;28.50;;;;;;;-0.97;100.00;100210.88;4987215;28;20064;-69
2020/12/10 05:46:47;;;;;;;80.47;30.83;;;;;;;-0.83;100.00;100207.88;4985273;28;20034;-69
2020/12/10 05:49:13;;;;;;;82.40;31.30;;;;;;;-0.83;100.00;100215.78;4981620;28;20038;-69
2020/12/10 05:51:44;;;;;;;83.38;30.17;;;;;;;-0.84;100.00;100209.66;4985274;28;20544;-69
2020/12/10 05:54:10;;;;;;;81.07;29.38;;;;;;;-0.87;100.00;100217.66;4984088;28;20097;-69
2020/12/10 05:56:59;;;;;;;76.18;28.90;;;;;;;-0.87;100.00;100216.78;4984246;28;20473;-69
2020/12/10 05:59:26;;;;;;;78.43;28.92;;;;;;;-0.90;100.00;100207.16;5003635;28;20463;-69
2020/12/10 06:01:55;;;;;;;88.78;31.65;;;;;;;-0.96;100.00;100212.59;4986839;28;20046;-69
2020/12/10 06:04:21;;;;;;;78.00;29.48;;;;;;;-0.91;100.00;100209.84;4981752;28;20096;-69
2020/12/10 06:06:50;;;;;;;85.25;28.55;;;;;;;-0.81;100.00;100216.63;4982333;28;20049;-69
2020/12/10 06:09:18;;;;;;;72.13;28.02;;;;;;;-0.75;100.00;100216.47;4989134;28;20375;-69
2020/12/10 06:11:43;;;;;;;88.85;30.23;;;;;;;-0.73;100.00;100205.84;4981161;28;20104;-69
2020/12/10 06:14:09;;;;;;;75.47;28.05;;;;;;;-0.82;100.00;100207.84;4985935;28;20065;-69
2020/12/10 06:16:35;;;;;;;81.40;29.63;;;;;;;-0.71;100.00;100206.69;4982485;28;20046;-69
2020/12/10 06:19:05;;;;;;;80.53;29.15;;;;;;;-0.85;100.00;100210.53;4984066;28;20094;-69
2020/12/10 06:21:35;;;;;;;78.72;28.83;;;;;;;-0.95;100.00;100208.19;4980347;28;20039;-69
2020/12/10 06:24:27;;;;;;;96.88;38.35;;;;;;;-0.77;100.00;100217.38;4985903;28;20143;-69
2020/12/10 06:27:00;;;;;;;85.40;31.77;;;;;;;-0.73;100.00;100213.75;5000326;28;20034;-69
2020/12/10 06:29:34;;;;;;;82.93;29.85;;;;;;;-0.96;100.00;100206.47;4979943;28;20029;-69
2020/12/10 06:32:19;;;;;;;86.03;30.00;;;;;;;-0.90;100.00;100201.91;4980842;28;20465;-69
2020/12/10 06:34:55;;;;;;;85.93;30.95;;;;;;;-0.89;100.00;100202.78;4983593;28;20339;-69
2020/12/10 06:37:26;;;;;;;80.50;28.58;;;;;;;-0.74;100.00;100197.06;4985445;28;21557;-69
2020/12/10 06:39:59;;;;;;;73.97;29.05;;;;;;;-0.68;100.00;100204.00;4985286;28;20042;-69
2020/12/10 06:42:26;;;;;;;73.47;27.77;;;;;;;-0.74;100.00;100206.78;4980313;28;20039;-69
2020/12/10 06:44:51;;;;;;;75.53;28.25;;;;;;;-0.78;100.00;100210.38;4986422;28;20034;-69
2020/12/10 06:47:18;;;;;;;79.45;31.25;;;;;;;-0.86;100.00;100206.19;4983015;28;20038;-72
2020/12/10 06:49:43;;;;;;;76.85;29.77;;;;;;;-0.88;100.00;100213.28;4985331;28;20049;-69
2020/12/10 06:52:11;;;;;;;74.75;29.60;;;;;;;-0.87;100.00;100222.06;4979014;28;20031;-69
2020/12/10 06:55:05;;;;;;;79.75;29.17;;;;;;;-0.86;100.00;100213.22;4985712;28;20073;-69
2020/12/10 06:57:49;;;;;;;;;;;;;;;-0.97;100.00;100216.13;4977557;28;20153;-69
2020/12/10 07:00:54;;;;;;;82.93;28.55;;;;;;;-0.84;100.00;100217.56;4977579;28;19914;-69
2020/12/10 07:03:30;;;;;;;79.93;29.42;;;;;;;-0.82;100.00;100225.44;4973840;28;20027;-69
2020/12/10 07:05:55;;;;;;;78.75;29.90;;;;;;;-0.79;100.00;100232.38;4979103;28;20057;-69
2020/12/10 07:08:21;;;;;;;84.70;30.88;;;;;;;-0.95;100.00;100235.41;4985705;28;20034;-69
2020/12/10 07:10:49;;;;;;;84.15;31.00;;;;;;;-0.90;100.00;100238.78;4980286;28;20444;-69
2020/12/10 07:13:17;;;;;;;85.25;30.08;;;;;;;-0.93;100.00;100246.78;4983840;28;20287;-69
2020/12/10 07:15:49;;;;;;;80.60;31.55;;;;;;;-0.90;100.00;100240.56;4986964;28;20116;-69
2020/12/10 07:18:15;;;;;;;77.85;30.95;;;;;;;-0.93;100.00;100238.88;4986637;28;20034;-69
2020/12/10 07:20:41;;;;;;;79.22;29.20;;;;;;;-0.94;100.00;100237.16;4974568;28;20041;-69
2020/12/10 07:23:06;;;;;;;84.00;30.17;;;;;;;-0.85;100.00;100236.91;4986212;28;20046;-69
2020/12/10 07:25:32;;;;;;;78.72;30.17;;;;;;;-0.97;100.00;100236.34;4984945;28;20038;-69
2020/12/10 07:27:59;;;;;;;80.70;31.45;;;;;;;-0.98;100.00;100238.09;4977861;28;20049;-69
2020/12/10 07:30:26;;;;;;;77.60;30.52;;;;;;;-0.90;100.00;100241.41;4980082;28;20038;-69
2020/12/10 07:32:53;;;;;;;79.63;28.85;;;;;;;-1.02;100.00;100243.50;4984794;28;20045;-69
2020/12/10 07:35:33;;;;;;;74.90;29.27;;;;;;;-0.92;100.00;100251.13;4977706;28;20518;-69
2020/12/10 07:38:10;;;;;;;83.82;29.67;;;;;;;-0.92;100.00;100260.78;4974884;28;20133;-69
2020/12/10 07:40:35;;;;;;;79.63;29.10;;;;;;;-1.02;100.00;100268.06;4981425;28;20038;-69
2020/12/10 07:43:02;;;;;;;88.25;31.45;;;;;;;-0.96;100.00;100260.00;4978395;28;20034;-69
2020/12/10 07:45:28;;;;;;;76.63;30.08;;;;;;;-0.96;100.00;100257.38;4976095;28;20536;-69
2020/12/10 07:47:58;;;;;;;74.90;28.15;;;;;;;-0.92;100.00;100261.66;4978473;28;20042;-69
2020/12/10 07:50:27;;;;;;;73.28;27.85;;;;;;;-0.98;100.00;100259.19;4969195;28;20061;-69
2020/12/10 07:52:54;;;;;;;84.90;30.30;;;;;;;-0.95;100.00;100260.88;4978380;28;20068;-69
2020/12/10 07:55:22;;;;;;;76.90;31.35;;;;;;;-1.04;100.00;100256.69;4985045;28;20038;-69
2020/12/10 07:58:12;;;;;;;98.78;35.42;;;;;;;-1.02;100.00;100254.91;4982263;28;20139;-69
2020/12/10 08:00:44;;;;;;;83.03;31.27;;;;;;;-0.96;100.00;100254.75;4982102;28;20035;-69
2020/12/10 08:03:16;;;;;;;84.60;30.55;;;;;;;-0.93;100.00;100259.09;5001952;28;20046;-69
2020/12/10 08:05:43;;;;;;;76.63;29.65;;;;;;;-1.01;100.00;100254.00;4966062;28;20042;-69
2020/12/10 08:08:10;;;;;;;77.40;30.25;;;;;;;-1.01;100.00;100251.38;4986734;28;20117;-69
2020/12/10 08:10:35;;;;;;;79.07;30.52;;;;;;;-0.96;100.00;100245.97;4973141;28;20042;-69
2020/12/10 08:13:10;;;;;;;83.85;30.50;;;;;;;-0.88;100.00;100250.16;4985566;28;20038;-69
2020/12/10 08:15:36;;;;;;;84.05;32.05;;;;;;;-0.86;100.00;100247.47;4974090;28;21274;-69
2020/12/10 08:18:06;;;;;;;84.22;31.27;;;;;;;-0.87;100.00;100243.13;4983907;28;20375;-69
2020/12/10 08:20:42;;;;;;;81.45;30.77;;;;;;;-0.82;100.00;100246.50;4981013;28;20143;-69
2020/12/10 08:23:07;;;;;;;81.00;30.08;;;;;;;-0.77;100.00;100249.00;4981731;28;20031;-69
2020/12/10 08:25:33;;;;;;;73.50;27.90;;;;;;;-0.67;100.00;100250.50;4979969;28;20727;-69
2020/12/10 08:27:58;;;;;;;75.28;28.83;;;;;;;-0.72;100.00;100244.47;4983777;28;20040;-69
2020/12/10 08:30:24;;;;;;;80.97;30.70;;;;;;;-0.64;100.00;100245.16;4984947;28;20493;-69
2020/12/10 08:32:56;;;;;;;81.93;31.65;;;;;;;-0.72;100.00;100241.84;4983074;28;20302;-69
2020/12/10 08:35:21;;;;;;;83.97;31.27;;;;;;;-0.45;100.00;100239.34;4975820;28;20118;-69
2020/12/10 08:37:47;;;;;;;89.05;30.88;;;;;;;-0.42;100.00;100246.31;4975619;28;20574;-69
2020/12/10 08:40:23;;;;;;;83.60;31.08;;;;;;;-0.58;100.00;100235.31;4987815;28;20101;-69
2020/12/10 08:42:49;;;;;;;76.45;30.65;;;;;;;-0.51;100.00;100231.63;4988234;28;20388;-69
2020/12/10 08:45:28;;;;;;;78.60;30.25;;;;;;;-0.53;100.00;100228.16;4987935;28;20027;-69
2020/12/10 08:47:53;;;;;;;82.15;29.98;;;;;;;-0.38;100.00;100232.16;4986519;28;20764;-69
2020/12/10 08:50:28;;;;;;;80.07;30.85;;;;;;;-0.27;100.00;100234.47;4983267;28;20038;-69
2020/12/10 08:53:06;;;;;;;81.25;30.13;;;;;;;-0.29;100.00;100237.16;4984917;28;20038;-69
2020/12/10 08:55:45;;;;;;;83.07;30.98;;;;;;;-0.28;100.00;100243.28;4975339;28;20485;-69
2020/12/10 08:58:18;;;;;;;75.95;30.75;;;;;;;-0.16;100.00;100238.53;4986237;28;20396;-69
2020/12/10 09:00:44;;;;;;;94.28;33.90;;;;;;;-0.11;100.00;100231.34;4986943;28;20390;-72
2020/12/10 09:03:09;;;;;;;82.80;30.52;;;;;;;-0.19;100.00;100227.22;5002473;28;20039;-72
2020/12/10 09:05:35;;;;;;;87.15;32.92;;;;;;;-0.11;100.00;100241.91;4980212;28;20038;-69
2020/12/10 09:08:00;;;;;;;78.00;31.10;;;;;;;-0.07;100.00;100237.44;4986756;28;20037;-69
2020/12/10 09:10:29;;;;;;;75.30;28.15;;;;;;;-0.07;100.00;100237.44;4987516;28;20035;-69
2020/12/10 09:12:56;;;;;;;74.97;29.20;;;;;;;-0.10;100.00;100238.38;4989516;28;20299;-69
2020/12/10 09:15:22;;;;;;;87.28;34.50;;;;;;;0.00;100.00;100236.34;4984157;28;20114;-69
2020/12/10 09:17:47;;;;;;;80.18;32.38;;;;;;;0.13;100.00;100242.09;4988559;28;20548;-69
2020/12/10 09:20:13;;;;;;;74.80;30.20;;;;;;;0.10;100.00;100239.56;4985878;28;20089;-69
2020/12/10 09:22:38;;;;;;;73.43;29.67;;;;;;;0.12;100.00;100248.31;4983968;28;20034;-69
2020/12/10 09:25:04;;;;;;;76.05;28.90;;;;;;;0.17;100.00;100243.75;4981478;28;20041;-69
2020/12/10 09:27:29;;;;;;;66.70;28.52;;;;;;;0.22;100.00;100244.47;4981630;28;20116;-69
2020/12/10 09:29:55;;;;;;;72.43;27.35;;;;;;;0.33;100.00;100237.09;4979395;28;20038;-69
2020/12/10 09:32:20;;;;;;;74.82;29.63;;;;;;;0.22;100.00;100236.56;4986985;28;20532;-69
2020/12/10 09:34:46;;;;;;;73.70;29.30;;;;;;;0.35;100.00;100246.72;4978612;28;20041;-69
2020/12/10 09:37:11;;;;;;;71.55;29.83;;;;;;;0.46;100.00;100249.00;4983585;28;20034;-69
2020/12/10 09:39:37;;;;;;;71.60;28.27;;;;;;;0.55;100.00;100246.09;4986041;28;20560;-69
2020/12/10 09:42:03;;;;;;;71.32;29.30;;;;;;;0.49;100.00;100243.66;4979232;28;20052;-69
2020/12/10 09:44:29;;;;;;;72.53;28.98;;;;;;;0.43;100.00;100243.84;4983242;28;20026;-69
2020/12/10 09:46:54;;;;;;;70.85;29.38;;;;;;;0.63;100.00;100245.84;4983610;28;20034;-69
2020/12/10 09:49:20;;;;;;;70.70;28.48;;;;;;;0.60;100.00;100252.09;4984122;28;20109;-69
2020/12/10 09:51:52;;;;;;;73.35;29.60;;;;;;;0.66;100.00;100265.13;4984691;28;20045;-69
2020/12/10 09:54:35;;;;;;;68.53;28.45;;;;;;;0.71;100.00;100249.97;4978057;28;20111;-69
2020/12/10 09:59:27;;;;;;;68.68;27.38;;;;;;;0.62;100.00;100244.09;4980754;28;20117;-69
2020/12/10 10:01:52;;;;;;;69.05;29.20;;;;;;;0.82;100.00;100242.56;4986459;28;20515;-69
2020/12/10 10:04:18;;;;;;;67.30;28.92;;;;;;;0.78;100.00;100245.38;4986296;28;20117;-69
2020/12/10 10:06:44;;;;;;;73.28;29.08;;;;;;;0.90;100.00;100244.09;4982372;28;20045;-69
2020/12/10 10:09:11;;;;;;;65.35;26.45;;;;;;;0.85;100.00;100241.63;4979213;28;20043;-69
2020/12/10 10:11:36;;;;;;;67.47;28.35;;;;;;;0.91;100.00;100233.50;4984277;28;20038;-69
2020/12/10 10:14:02;;;;;;;64.72;28.88;;;;;;;1.08;100.00;100240.88;4980637;28;20034;-69
2020/12/10 10:16:28;;;;;;;66.47;28.20;;;;;;;1.17;100.00;100237.94;4981646;28;20436;-69
2020/12/10 10:18:53;;;;;;;64.20;26.00;;;;;;;1.18;100.00;100239.63;4979186;28;20045;-69
2020/12/10 10:21:19;;;;;;;63.97;27.38;;;;;;;1.23;100.00;100245.66;4985216;28;20026;-70
2020/12/10 10:23:45;;;;;;;67.03;26.77;;;;;;;1.25;100.00;100241.16;4985868;28;20034;-70
2020/12/10 10:26:10;;;;;;;74.45;28.00;;;;;;;1.27;100.00;100235.81;4983702;28;20042;-69
2020/12/10 10:28:36;;;;;;;62.13;26.13;;;;;;;1.29;100.00;100231.34;4983562;28;20473;-69
2020/12/10 10:31:01;;;;;;;62.60;26.17;;;;;;;1.27;100.00;100233.19;4985259;28;20026;-69
2020/12/10 10:33:27;;;;;;;61.30;25.92;;;;;;;1.26;100.00;100227.03;4984613;28;20469;-69
2020/12/10 10:35:53;;;;;;;58.33;25.80;;;;;;;1.18;100.00;100235.22;4985820;28;20184;-69
2020/12/10 10:38:20;;;;;;;61.17;27.10;;;;;;;1.08;100.00;100227.66;4984135;28;20523;-69
2020/12/10 10:40:46;;;;;;;62.95;27.15;;;;;;;1.20;100.00;100225.47;4975659;28;20041;-69
2020/12/10 10:43:11;;;;;;;62.53;26.38;;;;;;;1.23;100.00;100229.78;4979651;28;20472;-69
2020/12/10 10:45:37;;;;;;;63.08;28.13;;;;;;;1.17;100.00;100230.00;4977073;28;20045;-69
2020/12/10 10:48:02;;;;;;;62.95;26.45;;;;;;;1.20;100.00;100220.16;4986280;28;20038;-70
2020/12/10 10:50:28;;;;;;;62.28;25.30;;;;;;;1.23;100.00;100221.84;4976991;28;20065;-69
2020/12/10 10:52:53;;;;;;;60.67;25.52;;;;;;;1.22;100.00;100214.84;4986273;28;20319;-70
2020/12/10 10:55:19;;;;;;;59.55;25.42;;;;;;;1.23;100.00;100216.56;4980600;28;20076;-70
2020/12/10 10:57:44;;;;;;;62.92;26.23;;;;;;;1.15;100.00;100208.91;4986128;28;20054;-70
2020/12/10 11:00:09;;;;;;;62.40;25.98;;;;;;;1.15;100.00;100208.91;4986807;28;20034;-70
2020/12/10 11:02:35;;;;;;;81.07;34.08;;;;;;;1.15;100.00;100210.69;4986845;28;20038;-70
2020/12/10 11:05:01;;;;;;;58.67;25.02;;;;;;;1.21;100.00;100203.41;4980649;28;20031;-70